Time;durP1;ratioP1;P1;durP2;ratioP2;P2;SDS_P1;SDS_P2;PMS_P1;PMS_P2;Temp;Humidity;BMP_temperature;BMP_pressure;BME280_temperature;BME280_humidity;BME280_pressure;Samples;Min_cycle;Max_cycle;Signal;HPM_P1;HPM_P2
2023/06/03 00:02:47;;;;;;;25.08;22.70;;;24.10;69.40;;;;;;4798755;58;21058;-32
2023/06/03 00:07:47;;;;;;;25.33;22.92;;;24.10;69.40;;;;;;4901223;54;21469;-33
2023/06/03 00:12:48;;;;;;;25.42;23.02;;;24.10;69.40;;;;;;4950622;54;20999;-33
2023/06/03 00:17:49;;;;;;;25.73;23.23;;;24.10;69.40;;;;;;4835933;54;21023;-32
2023/06/03 00:22:50;;;;;;;25.65;23.15;;;24.10;69.40;;;;;;4798978;58;21055;-32
2023/06/03 00:27:51;;;;;;;25.70;23.25;;;24.10;69.40;;;;;;4799444;58;21626;-33
2023/06/03 00:32:52;;;;;;;25.88;23.45;;;24.10;69.30;;;;;;5072414;54;21081;-33
2023/06/03 00:37:56;;;;;;;26.55;24.05;;;24.10;69.40;;;;;;4873611;54;21030;-32
2023/06/03 00:42:57;;;;;;;25.40;23.10;;;24.10;69.50;;;;;;4799242;58;21046;-36
2023/06/03 00:47:58;;;;;;;25.33;22.92;;;24.10;69.40;;;;;;4835280;54;21580;-34
2023/06/03 00:53:01;;;;;;;25.30;23.00;;;24.10;69.40;;;;;;4868847;54;21086;-30
2023/06/03 00:58:02;;;;;;;24.20;21.83;;;24.10;69.30;;;;;;4968714;54;21070;-31
2023/06/03 01:03:03;;;;;;;24.87;22.58;;;24.10;69.30;;;;;;4859355;54;22530;-32
2023/06/03 01:08:21;;;;;;;23.65;21.35;;;24.10;69.40;;;;;;4867968;54;21022;-32
2023/06/03 01:14:10;;;;;;;23.55;21.35;;;24.10;69.50;;;;;;4891035;54;21480;-33
2023/06/03 01:19:38;;;;;;;24.23;21.92;;;24.10;69.40;;;;;;4798934;55;21010;-32
2023/06/03 01:24:43;;;;;;;24.73;22.42;;;24.10;69.30;;;;;;4800190;54;21010;-33
2023/06/03 01:29:45;;;;;;;24.85;22.40;;;24.00;69.40;;;;;;4888694;54;20990;-34
2023/06/03 01:34:47;;;;;;;24.17;21.98;;;24.10;69.40;;;;;;4828796;54;20983;-34
2023/06/03 01:39:49;;;;;;;23.73;21.50;;;24.10;69.30;;;;;;4815876;54;21017;-34
2023/06/03 01:44:52;;;;;;;25.40;22.90;;;24.00;69.30;;;;;;4830609;54;20998;-33
2023/06/03 01:49:54;;;;;;;22.95;20.83;;;24.10;69.30;;;;;;4840723;54;21607;-35
2023/06/03 01:54:55;;;;;;;24.35;22.05;;;24.00;69.30;;;;;;4835939;54;20974;-34
2023/06/03 01:59:56;;;;;;;24.73;22.30;;;24.00;69.30;;;;;;4798959;58;21492;-33
2023/06/03 02:04:57;;;;;;;24.77;22.37;;;24.00;69.30;;;;;;4799278;58;21006;-33
2023/06/03 02:09:58;;;;;;;23.80;21.60;;;24.00;69.20;;;;;;4869523;54;21537;-36
2023/06/03 02:14:59;;;;;;;23.65;21.40;;;24.00;69.30;;;;;;4855389;54;21046;-35
2023/06/03 02:20:00;;;;;;;23.75;21.45;;;24.00;69.30;;;;;;4819607;54;21090;-35
2023/06/03 02:25:01;;;;;;;23.80;21.52;;;24.00;69.30;;;;;;4802851;54;21059;-32
2023/06/03 02:30:02;;;;;;;24.37;22.05;;;24.00;69.30;;;;;;4799569;54;21066;-32
2023/06/03 02:35:05;;;;;;;22.80;20.60;;;24.00;69.20;;;;;;4855320;54;21464;-33
2023/06/03 02:40:09;;;;;;;23.77;21.58;;;24.00;69.20;;;;;;4798592;58;21583;-35
2023/06/03 02:45:10;;;;;;;23.05;20.92;;;24.00;69.20;;;;;;4801490;54;21461;-35
2023/06/03 02:50:11;;;;;;;22.85;20.75;;;24.00;69.90;;;;;;4798172;58;21042;-34
2023/06/03 02:55:13;;;;;;;23.25;21.05;;;24.00;69.20;;;;;;4809295;54;21120;-36
2023/06/03 03:00:16;;;;;;;22.52;20.35;;;24.00;69.20;;;;;;4859724;54;21595;-34
2023/06/03 03:05:18;;;;;;;22.45;20.35;;;24.00;69.10;;;;;;4895306;54;21850;-32
2023/06/03 03:10:19;;;;;;;21.58;19.50;;;24.00;69.20;;;;;;4818774;54;21470;-33
2023/06/03 03:15:20;;;;;;;21.67;19.65;;;24.00;69.10;;;;;;4861160;54;21023;-33
2023/06/03 03:20:21;;;;;;;23.40;21.05;;;24.00;69.10;;;;;;4855193;54;21507;-33
2023/06/03 03:25:23;;;;;;;23.33;21.00;;;24.00;69.20;;;;;;4947448;54;21082;-33
2023/06/03 03:30:24;;;;;;;22.80;20.65;;;24.00;69.30;;;;;;4848821;54;21487;-33
2023/06/03 03:35:26;;;;;;;22.90;20.88;;;24.00;69.20;;;;;;4801406;54;20987;-33
2023/06/03 03:40:27;;;;;;;21.02;19.10;;;24.00;69.20;;;;;;4843700;54;21007;-34
2023/06/03 03:45:37;;;;;;;22.23;20.12;;;24.00;69.30;;;;;;4798955;58;21066;-36
2023/06/03 03:50:56;;;;;;;22.90;20.80;;;24.00;69.20;;;;;;4799331;58;21014;-35
2023/06/03 03:55:58;;;;;;;22.50;20.50;;;24.00;69.20;;;;;;4799210;58;21354;-34
2023/06/03 04:01:00;;;;;;;21.92;19.83;;;24.00;69.10;;;;;;4866743;54;21083;-33
2023/06/03 04:06:02;;;;;;;20.88;18.98;;;24.00;69.10;;;;;;4799457;58;21966;-31
2023/06/03 04:11:04;;;;;;;21.83;19.73;;;24.00;69.00;;;;;;4862377;54;21090;-28
2023/06/03 04:16:12;;;;;;;21.12;19.12;;;24.00;69.00;;;;;;4799766;55;21540;-32
2023/06/03 04:21:20;;;;;;;22.13;20.05;;;24.00;68.90;;;;;;4873903;54;20999;-32
2023/06/03 04:26:21;;;;;;;22.02;19.92;;;24.00;68.80;;;;;;4919474;54;21331;-33
2023/06/03 04:31:22;;;;;;;22.20;20.10;;;24.00;68.80;;;;;;4961397;54;21054;-32
2023/06/03 04:36:23;;;;;;;20.90;18.80;;;24.00;68.70;;;;;;4898263;54;21038;-32
2023/06/03 04:41:32;;;;;;;20.27;18.37;;;24.00;68.80;;;;;;5110584;54;21496;-34
2023/06/03 04:46:33;;;;;;;21.40;19.35;;;24.00;68.70;;;;;;4859112;54;21620;-32
2023/06/03 04:51:34;;;;;;;21.52;19.35;;;24.00;68.50;;;;;;5049549;54;21476;-33
2023/06/03 04:56:35;;;;;;;21.33;19.23;;;24.00;68.50;;;;;;4859295;54;21006;-34
2023/06/03 05:01:36;;;;;;;20.90;19.00;;;23.90;68.40;;;;;;4857364;54;21997;-34
2023/06/03 05:06:38;;;;;;;20.80;18.80;;;23.90;68.50;;;;;;4799574;55;21453;-34
2023/06/03 05:11:42;;;;;;;20.65;18.67;;;23.90;68.40;;;;;;4810747;54;21516;-34
2023/06/03 05:16:43;;;;;;;20.05;18.25;;;23.90;68.30;;;;;;4948704;54;21062;-36
2023/06/03 05:21:44;;;;;;;20.52;18.42;;;24.00;68.50;;;;;;4908285;54;21070;-33
2023/06/03 05:26:45;;;;;;;21.15;19.05;;;23.90;68.40;;;;;;4990940;54;21564;-35
2023/06/03 05:31:45;;;;;;;21.25;19.25;;;23.90;68.30;;;;;;4932672;54;21042;-34
2023/06/03 05:36:46;;;;;;;20.60;18.50;;;24.00;68.40;;;;;;4954315;54;20995;-33
2023/06/03 05:41:47;;;;;;;19.60;17.80;;;23.90;68.20;;;;;;4798505;58;21070;-34
2023/06/03 05:46:48;;;;;;;20.83;18.73;;;23.90;68.20;;;;;;4982086;54;21035;-35
2023/06/03 05:51:50;;;;;;;20.33;18.33;;;23.90;68.60;;;;;;4836056;54;20996;-35
2023/06/03 05:56:50;;;;;;;20.88;18.87;;;23.90;68.20;;;;;;4983432;54;21587;-32
2023/06/03 06:01:52;;;;;;;21.08;18.87;;;23.90;68.20;;;;;;5046978;54;21103;-32
2023/06/03 06:06:52;;;;;;;19.73;17.80;;;23.90;68.10;;;;;;4863481;54;21530;-32
2023/06/03 06:11:54;;;;;;;19.83;17.92;;;23.90;68.20;;;;;;4921718;54;21011;-36
2023/06/03 06:16:55;;;;;;;20.42;18.27;;;23.90;68.10;;;;;;4820536;54;21484;-34
2023/06/03 06:21:56;;;;;;;20.90;18.77;;;23.90;68.10;;;;;;4798045;58;21074;-35
2023/06/03 06:26:57;;;;;;;20.15;18.25;;;23.90;68.10;;;;;;4916214;54;21477;-35
2023/06/03 06:31:59;;;;;;;20.37;18.37;;;23.90;68.10;;;;;;4801190;54;21030;-32
2023/06/03 06:37:01;;;;;;;20.95;18.75;;;23.90;68.10;;;;;;4812442;54;21038;-33
2023/06/03 06:42:44;;;;;;;20.45;18.50;;;23.90;68.10;;;;;;4798724;58;21758;-33
2023/06/03 06:47:45;;;;;;;22.13;19.75;;;23.90;68.10;;;;;;4823059;54;21142;-34
2023/06/03 06:52:46;;;;;;;21.00;18.90;;;23.90;68.20;;;;;;4886754;54;20998;-32
2023/06/03 06:57:46;;;;;;;21.33;19.20;;;23.90;68.10;;;;;;5013895;54;21024;-34
2023/06/03 07:02:47;;;;;;;21.45;19.30;;;23.90;68.20;;;;;;4829573;54;21500;-33
2023/06/03 07:07:49;;;;;;;22.23;19.42;;;23.90;68.10;;;;;;4853302;54;21340;-33
2023/06/03 07:12:53;;;;;;;21.52;19.42;;;23.90;68.20;;;;;;4851103;54;21548;-38
2023/06/03 07:17:56;;;;;;;21.15;18.95;;;23.90;68.10;;;;;;4980846;54;21038;-32
2023/06/03 07:23:00;;;;;;;21.92;19.73;;;23.90;68.10;;;;;;5036384;54;21034;-35
2023/06/03 07:28:27;;;;;;;21.05;19.00;;;23.90;68.20;;;;;;5110048;54;21490;-34
2023/06/03 07:33:30;;;;;;;22.30;19.90;;;24.00;68.20;;;;;;4857807;54;21006;-35
2023/06/03 07:39:52;;;;;;;22.98;20.65;;;24.00;68.20;;;;;;4827790;54;21002;-36
2023/06/03 07:44:55;;;;;;;24.17;20.85;;;24.00;68.20;;;;;;4810554;54;21005;-33
2023/06/03 07:49:58;;;;;;;23.23;20.90;;;23.90;68.20;;;;;;4923936;54;21504;-33
2023/06/03 07:54:59;;;;;;;25.42;20.35;;;23.90;68.20;;;;;;4942072;54;21477;-33
2023/06/03 08:00:00;;;;;;;23.05;20.58;;;24.00;68.30;;;;;;4833620;54;21086;-36
2023/06/03 08:05:02;;;;;;;21.37;19.10;;;24.00;68.30;;;;;;4865362;54;21070;-32
2023/06/03 08:10:07;;;;;;;23.52;21.02;;;24.00;68.30;;;;;;4958951;54;21610;-35
2023/06/03 08:15:26;;;;;;;22.37;20.08;;;24.00;68.30;;;;;;4804874;54;21480;-33
2023/06/03 08:20:28;;;;;;;22.15;19.83;;;24.00;68.30;;;;;;4841223;54;21604;-37
2023/06/03 08:25:32;;;;;;;24.83;22.10;;;24.00;68.30;;;;;;4936382;54;21059;-32
2023/06/03 08:30:33;;;;;;;24.25;21.75;;;24.00;68.30;;;;;;4828353;54;21010;-34
2023/06/03 08:35:34;;;;;;;23.95;21.27;;;24.00;68.30;;;;;;4812179;54;21063;-33
2023/06/03 08:40:45;;;;;;;25.00;21.85;;;24.00;68.30;;;;;;4799096;58;21022;-33
2023/06/03 08:46:36;;;;;;;25.10;21.77;;;24.00;68.30;;;;;;4855651;54;21070;-33
2023/06/03 08:51:39;;;;;;;23.05;20.60;;;24.00;68.30;;;;;;4843703;54;21065;-36
2023/06/03 08:56:45;;;;;;;23.00;20.37;;;24.00;68.30;;;;;;4818388;54;21496;-36
2023/06/03 09:01:51;;;;;;;25.15;22.45;;;24.00;68.30;;;;;;4798475;58;21038;-36
2023/06/03 09:06:52;;;;;;;25.83;22.45;;;24.00;68.30;;;;;;4816354;54;21074;-34
2023/06/03 09:11:55;;;;;;;25.02;21.70;;;24.00;68.40;;;;;;4813333;54;21042;-34
2023/06/03 09:16:58;;;;;;;23.42;20.92;;;24.00;68.40;;;;;;4811990;54;21130;-34
2023/06/03 09:22:02;;;;;;;25.30;22.00;;;23.90;68.30;;;;;;4858605;54;21090;-33
2023/06/03 09:27:03;;;;;;;23.77;21.17;;;24.00;68.40;;;;;;4844547;54;21457;-31
2023/06/03 09:32:06;;;;;;;25.05;22.35;;;24.00;68.40;;;;;;4799265;56;21166;-33
2023/06/03 09:37:09;;;;;;;24.98;21.77;;;24.00;68.40;;;;;;4886162;54;20990;-35
2023/06/03 09:42:11;;;;;;;25.83;22.33;;;24.00;68.40;;;;;;4826228;54;21066;-35
2023/06/03 09:47:12;;;;;;;24.37;21.37;;;24.00;68.40;;;;;;4846815;54;21090;-32
2023/06/03 09:52:31;;;;;;;24.58;21.12;;;24.00;68.40;;;;;;4872650;54;21488;-36
2023/06/03 09:57:32;;;;;;;24.52;21.55;;;24.00;68.40;;;;;;4870617;54;21011;-34
2023/06/03 10:02:34;;;;;;;24.23;21.62;;;24.00;68.40;;;;;;4818769;54;21127;-33
2023/06/03 10:07:46;;;;;;;24.25;21.65;;;24.00;68.40;;;;;;4799246;58;21078;-29
2023/06/03 10:12:50;;;;;;;26.65;21.15;;;24.00;68.40;;;;;;4824614;54;21397;-33
2023/06/03 10:17:51;;;;;;;23.98;21.48;;;24.00;68.40;;;;;;4832539;54;21269;-33
2023/06/03 10:22:52;;;;;;;25.12;22.25;;;24.00;68.40;;;;;;4880912;54;21031;-33
2023/06/03 10:27:52;;;;;;;23.02;20.52;;;24.00;68.30;;;;;;4994576;54;20978;-33
2023/06/03 10:32:57;;;;;;;23.17;20.62;;;23.90;68.30;;;;;;4847779;54;21058;-29
2023/06/03 10:38:03;;;;;;;25.48;20.70;;;24.00;68.30;;;;;;4799081;58;21561;-35
2023/06/03 10:43:04;;;;;;;25.80;21.60;;;24.00;68.30;;;;;;4798451;58;20995;-33
2023/06/03 10:48:11;;;;;;;22.50;20.20;;;24.00;68.40;;;;;;4798356;58;21095;-33
2023/06/03 10:54:03;;;;;;;24.45;21.85;;;24.00;68.40;;;;;;4864462;54;21102;-33
2023/06/03 10:59:07;;;;;;;24.42;21.83;;;24.00;68.30;;;;;;4845645;54;21074;-34
2023/06/03 11:04:17;;;;;;;23.83;21.30;;;24.00;68.30;;;;;;4877882;54;21465;-34
2023/06/03 11:09:32;;;;;;;24.42;21.85;;;24.00;68.30;;;;;;4854166;54;21114;-36
2023/06/03 11:14:52;;;;;;;23.35;20.85;;;24.00;68.30;;;;;;4817199;54;21078;-35
2023/06/03 11:19:55;;;;;;;24.15;21.55;;;24.00;68.40;;;;;;4909164;54;21034;-31
2023/06/03 11:25:00;;;;;;;24.45;21.75;;;24.00;68.30;;;;;;4971637;54;21556;-34
2023/06/03 11:30:05;;;;;;;22.80;20.37;;;24.00;68.30;;;;;;4826410;54;21508;-34
2023/06/03 11:35:26;;;;;;;23.50;20.98;;;24.00;68.40;;;;;;4803403;54;21481;-35
2023/06/03 11:40:44;;;;;;;24.27;21.65;;;24.00;68.30;;;;;;4867818;54;21066;-36
2023/06/03 11:45:45;;;;;;;22.83;20.52;;;24.00;68.30;;;;;;4945037;54;21480;-35
2023/06/03 11:50:53;;;;;;;23.17;20.55;;;24.00;68.30;;;;;;4972632;54;20975;-32
2023/06/03 11:56:07;;;;;;;26.17;22.75;;;24.00;68.30;;;;;;4843873;54;21424;-34
2023/06/03 12:01:16;;;;;;;23.55;20.73;;;24.00;68.30;;;;;;5021936;54;21504;-33
2023/06/03 12:06:17;;;;;;;22.05;19.65;;;24.00;68.30;;;;;;4854896;54;21484;-33
2023/06/03 12:11:29;;;;;;;23.85;20.95;;;24.00;68.30;;;;;;4880298;54;21046;-33
2023/06/03 12:16:34;;;;;;;22.87;19.30;;;24.00;68.30;;;;;;4891445;54;21113;-33
2023/06/03 12:21:39;;;;;;;22.25;19.95;;;24.00;68.30;;;;;;4880245;54;21007;-37
2023/06/03 12:26:42;;;;;;;24.92;21.70;;;24.00;68.30;;;;;;4799369;58;21155;-33
2023/06/03 12:31:58;;;;;;;27.52;22.65;;;24.00;68.40;;;;;;4863327;54;21548;-35
2023/06/03 12:37:00;;;;;;;26.12;23.33;;;24.00;68.30;;;;;;4854813;54;21046;-33
2023/06/03 12:42:01;;;;;;;25.45;22.08;;;24.00;69.10;;;;;;4813842;54;21035;-30
2023/06/03 12:47:03;;;;;;;24.58;21.73;;;24.00;68.40;;;;;;4953810;54;21030;-33
2023/06/03 12:52:19;;;;;;;24.02;21.45;;;24.00;68.30;;;;;;4798978;58;21062;-34
2023/06/03 12:57:21;;;;;;;24.87;22.00;;;24.00;68.30;;;;;;4883956;54;21705;-35
2023/06/03 13:02:22;;;;;;;24.27;21.33;;;24.00;68.40;;;;;;4899394;54;21509;-33
2023/06/03 13:07:23;;;;;;;23.62;21.12;;;24.00;68.30;;;;;;4827633;54;21054;-32
2023/06/03 13:12:24;;;;;;;24.90;21.95;;;24.00;68.30;;;;;;4901046;54;20999;-32
2023/06/03 13:17:26;;;;;;;24.10;21.50;;;24.00;68.30;;;;;;4842015;54;21552;-31
2023/06/03 13:22:27;;;;;;;23.60;20.90;;;24.00;68.40;;;;;;4798367;58;21880;-34
2023/06/03 13:27:28;;;;;;;23.62;20.85;;;24.00;68.40;;;;;;4810819;54;20990;-36
2023/06/03 13:32:31;;;;;;;23.58;21.08;;;24.00;68.30;;;;;;4833389;54;20986;-33
2023/06/03 13:37:32;;;;;;;23.73;21.20;;;24.00;68.40;;;;;;4799709;58;22246;-34
2023/06/03 13:42:33;;;;;;;22.98;20.67;;;24.00;68.30;;;;;;4828199;54;21347;-35
2023/06/03 13:47:34;;;;;;;22.25;19.90;;;24.00;68.40;;;;;;4869847;54;21646;-38
2023/06/03 13:52:35;;;;;;;22.15;19.83;;;24.00;68.30;;;;;;4872200;54;21497;-33
2023/06/03 13:57:36;;;;;;;22.67;20.37;;;24.00;68.30;;;;;;4841305;54;21490;-34
2023/06/03 14:02:37;;;;;;;22.62;20.30;;;24.00;68.30;;;;;;4920755;54;22433;-33
2023/06/03 14:07:38;;;;;;;21.77;19.50;;;24.00;68.30;;;;;;4834430;54;20995;-35
2023/06/03 14:12:39;;;;;;;20.12;18.00;;;24.00;68.30;;;;;;4816079;54;21007;-32
2023/06/03 14:17:41;;;;;;;20.77;18.58;;;24.00;68.20;;;;;;4818566;54;22224;-34
2023/06/03 14:22:42;;;;;;;21.37;19.17;;;24.00;68.20;;;;;;4896227;54;21580;-36
2023/06/03 14:27:43;;;;;;;21.35;19.05;;;24.00;68.10;;;;;;4798854;58;21070;-36
2023/06/03 14:32:44;;;;;;;21.42;19.23;;;24.00;68.30;;;;;;4939522;54;21327;-34
2023/06/03 14:37:45;;;;;;;19.98;18.00;;;24.00;68.20;;;;;;4846217;54;21878;-34
2023/06/03 14:42:46;;;;;;;20.10;18.00;;;24.00;68.20;;;;;;4811863;54;21970;-34
2023/06/03 14:47:47;;;;;;;19.83;17.83;;;24.00;68.30;;;;;;4931103;54;21946;-30
2023/06/03 14:52:48;;;;;;;22.35;19.98;;;24.00;68.20;;;;;;4871355;54;21344;-34
2023/06/03 14:57:49;;;;;;;21.55;19.35;;;24.00;68.20;;;;;;4814576;54;21814;-33
2023/06/03 15:02:50;;;;;;;22.75;20.17;;;24.00;68.20;;;;;;4798251;54;21033;-32
2023/06/03 15:07:51;;;;;;;23.60;20.70;;;24.00;68.20;;;;;;4884401;54;21419;-32
2023/06/03 15:12:52;;;;;;;22.80;19.60;;;24.00;68.20;;;;;;4889751;54;22199;-33
2023/06/03 15:17:53;;;;;;;23.02;20.58;;;24.10;68.20;;;;;;4861002;54;21062;-29
2023/06/03 15:22:53;;;;;;;23.65;21.15;;;24.10;68.20;;;;;;4798558;58;21097;-36
2023/06/03 15:27:54;;;;;;;21.73;19.40;;;24.10;68.20;;;;;;4799255;58;21071;-34
2023/06/03 15:32:55;;;;;;;24.23;20.15;;;24.10;68.10;;;;;;4853632;54;21010;-31
2023/06/03 15:37:56;;;;;;;23.05;20.55;;;24.10;68.40;;;;;;4799244;58;20995;-31
2023/06/03 15:42:57;;;;;;;21.77;19.48;;;24.10;68.20;;;;;;4864739;54;21077;-35
2023/06/03 15:47:58;;;;;;;24.77;20.80;;;24.10;68.20;;;;;;4798469;58;21628;-33
2023/06/03 15:52:59;;;;;;;21.95;19.45;;;24.10;68.30;;;;;;4822371;53;21023;-33
2023/06/03 15:58:00;;;;;;;23.60;19.70;;;24.10;68.30;;;;;;4819575;54;21018;-33
2023/06/03 16:03:01;;;;;;;21.73;19.40;;;24.10;68.30;;;;;;4861817;54;21517;-35
2023/06/03 16:08:02;;;;;;;22.80;19.58;;;24.10;68.30;;;;;;4820883;54;21006;-30
2023/06/03 16:13:04;;;;;;;25.12;19.35;;;24.10;68.40;;;;;;4812549;54;21030;-32
2023/06/03 16:18:05;;;;;;;22.05;19.75;;;24.10;68.30;;;;;;4799196;58;21026;-33
2023/06/03 16:23:06;;;;;;;24.15;20.45;;;24.10;68.30;;;;;;4798713;58;21567;-33
2023/06/03 16:28:07;;;;;;;23.08;20.00;;;24.10;68.30;;;;;;4798928;55;21075;-32
2023/06/03 16:33:08;;;;;;;21.48;17.77;;;24.10;68.30;;;;;;5009159;54;21532;-33
2023/06/03 16:38:08;;;;;;;21.42;19.15;;;24.10;68.30;;;;;;4873023;54;21014;-33
2023/06/03 16:43:09;;;;;;;21.23;18.92;;;24.10;68.30;;;;;;4942870;54;21018;-34
2023/06/03 16:48:10;;;;;;;22.13;18.83;;;24.10;68.30;;;;;;4881826;54;21161;-32
2023/06/03 16:53:11;;;;;;;21.48;19.17;;;24.10;68.30;;;;;;4926398;54;21030;-32
2023/06/03 16:58:12;;;;;;;21.77;19.48;;;24.10;68.30;;;;;;4858352;54;21057;-34
2023/06/03 17:03:13;;;;;;;21.42;18.73;;;24.10;68.40;;;;;;4804715;54;21058;-35
2023/06/03 17:08:14;;;;;;;19.60;17.58;;;24.10;68.90;;;;;;4977040;54;21464;-35
2023/06/03 17:13:15;;;;;;;20.92;18.77;;;24.10;68.30;;;;;;4999257;54;21449;-33
2023/06/03 17:18:16;;;;;;;20.48;18.48;;;24.10;68.20;;;;;;4799071;58;21457;-34
2023/06/03 17:23:17;;;;;;;20.65;17.83;;;24.10;68.20;;;;;;4837650;54;21599;-34
2023/06/03 17:28:18;;;;;;;21.00;18.62;;;24.10;68.30;;;;;;4799133;58;21108;-37
2023/06/03 17:33:21;;;;;;;21.27;19.08;;;24.10;68.20;;;;;;4818800;54;21018;-33
2023/06/03 17:38:21;;;;;;;21.23;19.02;;;24.20;68.30;;;;;;4864678;54;21544;-32
2023/06/03 17:43:22;;;;;;;20.65;18.52;;;24.10;68.30;;;;;;4916171;54;21019;-33
2023/06/03 17:48:23;;;;;;;20.70;18.50;;;24.10;68.20;;;;;;5051193;53;21030;-34
2023/06/03 17:53:25;;;;;;;20.08;18.00;;;24.10;68.30;;;;;;4820542;54;21030;-37
2023/06/03 17:58:26;;;;;;;19.35;17.35;;;24.10;68.20;;;;;;4926137;54;21529;-33
2023/06/03 18:03:27;;;;;;;21.87;18.55;;;24.10;68.20;;;;;;4840979;54;21070;-34
2023/06/03 18:08:28;;;;;;;19.95;17.85;;;24.10;68.10;;;;;;4804778;54;21465;-33
2023/06/03 18:13:28;;;;;;;21.40;17.65;;;24.10;68.10;;;;;;4799056;58;21002;-33
2023/06/03 18:18:31;;;;;;;20.65;18.00;;;24.10;67.90;;;;;;4804490;54;21465;-34
2023/06/03 18:23:32;;;;;;;19.00;17.10;;;24.20;68.00;;;;;;4799295;55;21457;-32
2023/06/03 18:28:32;;;;;;;19.45;17.33;;;24.10;68.00;;;;;;4859278;54;21003;-32
2023/06/03 18:33:33;;;;;;;19.12;16.90;;;24.20;67.70;;;;;;4799537;58;21488;-32
2023/06/03 18:38:34;;;;;;;21.25;18.10;;;24.20;67.70;;;;;;4940661;54;21022;-32
2023/06/03 18:43:35;;;;;;;20.12;18.08;;;24.20;67.90;;;;;;4820610;54;21182;-32
2023/06/03 18:48:36;;;;;;;19.52;17.52;;;24.20;67.90;;;;;;4839706;54;21165;-33
2023/06/03 18:53:37;;;;;;;20.77;18.42;;;24.20;67.70;;;;;;4798937;58;21094;-33
2023/06/03 18:58:38;;;;;;;20.37;17.27;;;24.20;67.80;;;;;;4812291;54;21544;-32
2023/06/03 19:03:42;;;;;;;20.33;18.23;;;24.10;68.00;;;;;;4873040;54;21480;-33
2023/06/03 19:08:43;;;;;;;19.27;17.00;;;24.10;68.00;;;;;;4844477;54;21432;-32
2023/06/03 19:13:44;;;;;;;19.45;17.45;;;24.10;68.00;;;;;;4806624;54;21519;-35
2023/06/03 19:18:45;;;;;;;18.87;16.87;;;24.10;68.00;;;;;;4920879;54;21077;-33
2023/06/03 19:23:46;;;;;;;18.45;16.60;;;24.10;68.00;;;;;;4815416;54;21047;-35
2023/06/03 19:28:47;;;;;;;19.35;17.37;;;24.10;68.10;;;;;;4859370;54;21890;-34
2023/06/03 19:33:49;;;;;;;18.00;16.20;;;24.10;68.10;;;;;;4953812;54;21319;-35
2023/06/03 19:38:50;;;;;;;18.60;16.58;;;24.10;68.10;;;;;;5021947;54;21536;-35
2023/06/03 19:43:51;;;;;;;18.65;16.65;;;24.10;68.10;;;;;;4865748;54;21051;-33
2023/06/03 19:48:52;;;;;;;19.12;17.12;;;24.10;68.10;;;;;;4870054;54;21575;-34
2023/06/03 19:53:52;;;;;;;19.20;17.02;;;24.10;68.10;;;;;;4912316;54;21018;-33
2023/06/03 19:58:53;;;;;;;19.02;16.87;;;24.10;68.00;;;;;;4931101;54;21638;-37
2023/06/03 20:03:54;;;;;;;18.67;16.60;;;24.10;68.10;;;;;;4894583;54;21467;-36
2023/06/03 20:08:56;;;;;;;16.83;15.00;;;24.10;68.10;;;;;;4843498;54;21324;-37
2023/06/03 20:13:57;;;;;;;17.60;15.80;;;24.10;68.10;;;;;;4799473;58;22032;-34
2023/06/03 20:18:58;;;;;;;18.83;16.92;;;24.10;68.00;;;;;;4871021;54;21399;-32
2023/06/03 20:23:58;;;;;;;17.30;15.60;;;24.10;68.70;;;;;;5280883;54;21339;-32
2023/06/03 20:28:59;;;;;;;17.62;15.82;;;24.10;68.00;;;;;;4859296;54;21050;-32
2023/06/03 20:34:00;;;;;;;15.88;14.27;;;24.10;68.00;;;;;;4940135;54;21438;-34
2023/06/03 20:39:01;;;;;;;17.48;15.68;;;24.10;68.10;;;;;;5008550;54;21047;-33
2023/06/03 20:44:02;;;;;;;18.17;16.27;;;24.10;68.00;;;;;;4933694;54;21062;-37
2023/06/03 20:49:03;;;;;;;16.90;15.20;;;24.10;68.10;;;;;;4869343;54;21034;-35
2023/06/03 20:54:04;;;;;;;16.25;14.45;;;24.10;68.00;;;;;;4905414;54;21536;-40
2023/06/03 20:59:05;;;;;;;17.35;15.55;;;24.10;68.00;;;;;;4879066;54;21564;-35
2023/06/03 21:04:10;;;;;;;17.35;15.63;;;24.10;68.00;;;;;;4799414;58;21018;-32
2023/06/03 21:09:11;;;;;;;17.05;15.32;;;24.10;67.90;;;;;;4832415;54;21500;-34
2023/06/03 21:14:12;;;;;;;16.23;14.68;;;24.10;67.90;;;;;;4799021;58;21063;-38
2023/06/03 21:19:13;;;;;;;16.27;14.68;;;24.00;67.90;;;;;;4815232;54;21022;-31
2023/06/03 21:24:14;;;;;;;16.75;14.95;;;24.10;67.90;;;;;;5192879;54;21496;-32
2023/06/03 21:29:15;;;;;;;16.58;14.87;;;24.00;67.80;;;;;;4801473;54;20999;-40
2023/06/03 21:34:15;;;;;;;15.93;14.18;;;24.10;67.90;;;;;;4804237;54;21472;-34
2023/06/03 21:39:16;;;;;;;16.37;14.68;;;24.00;67.90;;;;;;4976055;54;20999;-33
2023/06/03 21:44:17;;;;;;;16.15;14.55;;;24.00;67.70;;;;;;4821174;54;21102;-36
2023/06/03 21:49:18;;;;;;;16.10;14.35;;;24.00;67.80;;;;;;4802642;54;21114;-36
2023/06/03 21:54:19;;;;;;;16.30;14.55;;;24.00;67.70;;;;;;4869390;54;21094;-34
2023/06/03 21:59:20;;;;;;;15.82;14.20;;;24.00;67.80;;;;;;4857995;54;21101;-36
2023/06/03 22:04:20;;;;;;;16.50;14.82;;;24.00;67.70;;;;;;4799272;58;21047;-34
2023/06/03 22:09:21;;;;;;;15.63;14.02;;;24.10;67.90;;;;;;4798914;58;21541;-33
2023/06/03 22:14:22;;;;;;;16.08;14.48;;;24.00;67.60;;;;;;5004197;54;21381;-32
2023/06/03 22:19:23;;;;;;;15.35;13.73;;;24.10;67.70;;;;;;4899947;54;21073;-35
2023/06/03 22:24:24;;;;;;;15.50;13.82;;;24.00;67.60;;;;;;4799357;58;21360;-35
2023/06/03 22:29:25;;;;;;;15.57;13.95;;;24.00;67.60;;;;;;4969846;54;20991;-33
2023/06/03 22:34:25;;;;;;;14.82;13.32;;;24.00;67.60;;;;;;4805824;54;21030;-37
2023/06/03 22:39:26;;;;;;;15.07;13.55;;;24.00;68.20;;;;;;4808604;54;21023;-36
2023/06/03 22:44:27;;;;;;;15.35;13.77;;;24.00;67.60;;;;;;4938164;54;21010;-33
2023/06/03 22:49:28;;;;;;;16.15;13.48;;;24.00;67.60;;;;;;4801747;54;21102;-37
2023/06/03 22:54:29;;;;;;;14.35;12.95;;;24.00;67.60;;;;;;4872963;54;21015;-33
2023/06/03 22:59:32;;;;;;;15.15;13.10;;;24.00;67.50;;;;;;4825140;54;21579;-34
2023/06/03 23:04:33;;;;;;;14.80;13.18;;;24.00;67.50;;;;;;5026822;54;21458;-34
2023/06/03 23:09:34;;;;;;;14.05;12.55;;;24.00;67.50;;;;;;4817800;54;21030;-34
2023/06/03 23:14:35;;;;;;;14.30;12.75;;;24.00;67.40;;;;;;4803401;54;21409;-34
2023/06/03 23:19:39;;;;;;;14.07;12.60;;;24.00;67.40;;;;;;4824205;54;21366;-35
2023/06/03 23:24:40;;;;;;;13.82;12.48;;;24.00;67.40;;;;;;5084435;54;21648;-36
2023/06/03 23:29:41;;;;;;;14.27;12.88;;;24.00;67.30;;;;;;4799507;55;21363;-36
2023/06/03 23:34:42;;;;;;;14.25;12.80;;;24.00;67.40;;;;;;4945958;54;21058;-35
2023/06/03 23:39:42;;;;;;;13.55;12.25;;;24.00;67.30;;;;;;4891638;54;21007;-37
2023/06/03 23:44:43;;;;;;;13.35;11.95;;;24.00;67.20;;;;;;4844152;54;21464;-36
2023/06/03 23:49:44;;;;;;;12.52;11.27;;;24.00;67.20;;;;;;4797710;58;21095;-33
2023/06/03 23:54:45;;;;;;;12.82;11.60;;;24.00;67.20;;;;;;4840993;54;21488;-33
2023/06/03 23:59:46;;;;;;;13.27;12.00;;;24.00;67.20;;;;;;4973704;54;21090;-35
